Аэропорт: Звартноц. Ереван

ICAO: UDYZ

METAR:
2020-06-02 08:00:00
UDYZ 020800Z VRB01KT 9999 NSC 27/06 Q1008 R09/010070 NOSIG
METAR:
2020-06-02 05:00:00
TAF UDYZ 020500Z 0206/0306 17006KT 9999 SCT040 BKN100 TEMPO 0209/0218 VRB16G26KT -TSRA BKN030CB